createdAt,value
2023-08-14T00:00:56.175Z,4.70
2023-08-14T00:03:23.970Z,5.00
2023-08-14T00:05:51.215Z,4.90
2023-08-14T00:08:18.223Z,5.20
2023-08-14T00:10:44.917Z,5.30
2023-08-14T00:13:12.287Z,5.40
2023-08-14T00:15:39.374Z,5.30
2023-08-14T00:18:06.729Z,5.60
2023-08-14T00:20:33.651Z,5.60
2023-08-14T00:23:00.408Z,5.20
2023-08-14T00:25:27.045Z,5.60
2023-08-14T00:27:54.575Z,5.70
2023-08-14T00:30:22.040Z,5.80
2023-08-14T00:32:49.167Z,5.40
2023-08-14T00:35:16.670Z,5.50
2023-08-14T00:37:45.434Z,5.50
2023-08-14T00:40:12.962Z,5.30
2023-08-14T00:42:40.502Z,5.40
2023-08-14T00:45:08.407Z,5.20
2023-08-14T00:47:38.827Z,5.00
2023-08-14T00:50:07.672Z,5.00
2023-08-14T00:52:39.175Z,4.80
2023-08-14T00:55:09.442Z,4.80
2023-08-14T00:57:37.164Z,4.40
2023-08-14T01:00:06.462Z,4.40
2023-08-14T01:02:35.206Z,4.00
2023-08-14T01:05:02.396Z,4.70
2023-08-14T01:07:31.497Z,4.10
2023-08-14T01:09:59.362Z,5.00
2023-08-14T01:12:44.840Z,5.50
2023-08-14T01:15:13.334Z,5.20
2023-08-14T01:17:41.245Z,5.60
2023-08-14T01:20:10.494Z,6.00
2023-08-14T01:22:53.240Z,5.10
2023-08-14T01:25:23.350Z,4.50
2023-08-14T01:27:50.677Z,4.60
2023-08-14T01:30:18.345Z,4.80
2023-08-14T01:32:45.021Z,4.70
2023-08-14T01:35:12.034Z,5.00
2023-08-14T01:37:38.867Z,5.10
2023-08-14T01:40:14.589Z,4.90
2023-08-14T01:42:42.103Z,5.60
2023-08-14T01:45:13.737Z,5.50
2023-08-14T01:47:42.456Z,5.80
2023-08-14T01:50:09.679Z,6.60
2023-08-14T01:52:36.516Z,6.20
2023-08-14T01:55:03.571Z,5.90
2023-08-14T01:57:31.635Z,5.70
2023-08-14T01:59:58.678Z,6.30
2023-08-14T02:02:25.550Z,5.00
2023-08-14T02:04:54.153Z,5.60
2023-08-14T02:07:21.165Z,6.80
2023-08-14T02:09:48.095Z,5.80
2023-08-14T02:12:14.969Z,6.10
2023-08-14T02:14:41.789Z,6.10
2023-08-14T02:17:08.633Z,6.30
2023-08-14T02:19:35.341Z,6.00
2023-08-14T02:22:02.104Z,5.70
2023-08-14T02:24:28.951Z,5.40
2023-08-14T02:26:55.601Z,5.70
2023-08-14T02:29:22.650Z,5.40
2023-08-14T02:31:51.930Z,6.00
2023-08-14T02:34:35.159Z,5.50
2023-08-14T02:37:02.166Z,5.10
2023-08-14T02:39:29.050Z,5.30
2023-08-14T02:41:55.631Z,5.70
2023-08-14T02:44:22.534Z,5.30
2023-08-14T02:46:49.180Z,5.80
2023-08-14T02:49:16.008Z,6.10
2023-08-14T02:51:42.849Z,5.60
2023-08-14T02:54:09.631Z,5.10
2023-08-14T02:56:36.740Z,5.40
2023-08-14T02:59:03.582Z,6.00
2023-08-14T03:01:30.479Z,6.50
2023-08-14T03:03:57.474Z,6.50
2023-08-14T03:06:24.316Z,6.30
2023-08-14T03:08:51.777Z,6.50
2023-08-14T03:11:18.617Z,6.60
2023-08-14T03:13:45.479Z,5.80
2023-08-14T03:16:12.329Z,4.50
2023-08-14T03:18:39.345Z,4.80
2023-08-14T03:21:06.188Z,4.80
2023-08-14T03:23:33.038Z,4.70
2023-08-14T03:25:59.882Z,4.60
2023-08-14T03:28:26.922Z,4.40
2023-08-14T03:30:54.199Z,3.80
2023-08-14T03:33:22.244Z,3.20
2023-08-14T03:35:49.295Z,3.60
2023-08-14T03:38:16.134Z,4.00
2023-08-14T03:40:44.208Z,4.20
2023-08-14T03:43:11.667Z,4.70
2023-08-14T03:45:38.931Z,4.30
2023-08-14T03:48:05.991Z,5.70
2023-08-14T03:50:32.806Z,4.40
2023-08-14T03:53:01.084Z,4.50
2023-08-14T03:55:27.925Z,5.10
2023-08-14T03:57:55.789Z,5.30
2023-08-14T04:00:22.639Z,5.30
2023-08-14T04:02:50.350Z,5.70
2023-08-14T04:05:17.562Z,4.90
2023-08-14T04:07:44.188Z,5.70
2023-08-14T04:10:11.437Z,5.50
2023-08-14T04:12:38.284Z,5.20
2023-08-14T04:15:17.822Z,4.20
2023-08-14T04:17:45.313Z,4.90
2023-08-14T04:20:12.539Z,6.50
2023-08-14T04:22:40.021Z,5.10
2023-08-14T04:25:07.249Z,5.40
2023-08-14T04:27:35.314Z,5.90
2023-08-14T04:30:02.769Z,5.50
2023-08-14T04:32:31.216Z,5.40
2023-08-14T04:34:58.093Z,5.50
2023-08-14T04:37:25.141Z,5.90
2023-08-14T04:39:51.982Z,5.50
2023-08-14T04:42:20.348Z,5.90
2023-08-14T04:44:47.437Z,5.80
2023-08-14T04:47:14.352Z,5.90
2023-08-14T04:49:41.201Z,5.70
2023-08-14T04:52:08.038Z,6.10
2023-08-14T04:54:36.326Z,6.00
2023-08-14T04:57:03.781Z,5.30
2023-08-14T04:59:31.432Z,5.70
2023-08-14T05:01:58.357Z,6.50
2023-08-14T05:04:25.598Z,6.30
2023-08-14T05:06:53.725Z,6.30
2023-08-14T05:09:27.207Z,6.00
2023-08-14T05:11:55.895Z,6.30
2023-08-14T05:14:22.724Z,6.40
2023-08-14T05:16:49.616Z,6.50
2023-08-14T05:19:16.628Z,5.90
2023-08-14T05:21:43.477Z,5.80
2023-08-14T05:24:10.586Z,6.20
2023-08-14T05:26:37.554Z,6.00
2023-08-14T05:29:04.598Z,5.90
2023-08-14T05:31:31.488Z,5.90
2023-08-14T05:33:58.491Z,6.40
2023-08-14T05:36:25.360Z,5.80
2023-08-14T05:38:52.383Z,6.10
2023-08-14T05:41:20.453Z,6.50
2023-08-14T05:43:47.506Z,6.80
2023-08-14T05:46:14.357Z,7.00
2023-08-14T05:48:41.189Z,6.10
2023-08-14T05:51:08.032Z,6.40
2023-08-14T05:53:34.870Z,6.30
2023-08-14T05:56:01.723Z,5.80
2023-08-14T05:58:28.556Z,5.80
2023-08-14T06:00:55.456Z,6.00
2023-08-14T06:03:33.222Z,5.80
2023-08-14T06:06:06.045Z,5.80
2023-08-14T06:08:33.335Z,5.30
2023-08-14T06:11:00.612Z,6.50
2023-08-14T06:13:27.431Z,6.10
2023-08-14T06:15:54.270Z,6.20
2023-08-14T06:18:21.115Z,6.00
2023-08-14T06:20:47.956Z,6.60
2023-08-14T06:23:14.588Z,6.30
2023-08-14T06:25:41.197Z,7.10
2023-08-14T06:28:07.940Z,6.80
2023-08-14T06:30:34.788Z,6.40
2023-08-14T06:33:03.043Z,8.40
2023-08-14T06:35:29.715Z,7.70
2023-08-14T06:37:56.364Z,6.90
2023-08-14T06:40:23.316Z,6.90
2023-08-14T06:42:50.154Z,6.90
2023-08-14T06:45:17.609Z,13.40
2023-08-14T06:47:46.322Z,6.50
2023-08-14T06:50:13.967Z,6.60
2023-08-14T06:52:41.217Z,6.30
2023-08-14T06:55:08.052Z,6.90
2023-08-14T06:57:34.723Z,6.70
2023-08-14T07:00:04.472Z,6.60
2023-08-14T07:02:31.155Z,6.70
2023-08-14T07:04:57.797Z,6.70
2023-08-14T07:07:25.075Z,6.20
2023-08-14T07:09:51.860Z,6.70
2023-08-14T07:12:19.727Z,7.40
2023-08-14T07:14:47.104Z,6.10
2023-08-14T07:17:13.939Z,5.70
2023-08-14T07:19:40.579Z,5.90
2023-08-14T07:22:07.418Z,6.60
2023-08-14T07:24:34.022Z,6.60
2023-08-14T07:27:01.521Z,6.80
2023-08-14T07:29:28.367Z,6.70
2023-08-14T07:31:55.608Z,6.30
2023-08-14T07:34:22.380Z,6.50
2023-08-14T07:36:49.302Z,6.10
2023-08-14T07:39:17.164Z,7.00
2023-08-14T07:41:43.764Z,5.70
2023-08-14T07:44:10.643Z,5.40
2023-08-14T07:46:37.239Z,5.50
2023-08-14T07:49:03.872Z,5.80
2023-08-14T07:51:30.502Z,5.20
2023-08-14T07:53:57.185Z,6.00
2023-08-14T07:56:23.779Z,5.10
2023-08-14T07:58:50.670Z,4.80
2023-08-14T08:01:17.553Z,4.90
2023-08-14T08:03:44.555Z,5.20
2023-08-14T08:06:11.261Z,5.40
2023-08-14T08:08:38.259Z,5.50
2023-08-14T08:11:05.086Z,5.80
2023-08-14T08:13:31.940Z,6.10
2023-08-14T08:15:58.786Z,5.90
2023-08-14T08:18:25.613Z,5.60
2023-08-14T08:20:52.386Z,5.10
2023-08-14T08:23:19.312Z,5.60
2023-08-14T08:25:46.155Z,5.80
2023-08-14T08:28:13.184Z,5.40
2023-08-14T08:30:40.247Z,5.30
2023-08-14T08:33:07.589Z,5.50
2023-08-14T08:35:34.328Z,5.10
2023-08-14T08:38:01.171Z,5.20
2023-08-14T08:40:28.435Z,5.40
2023-08-14T08:42:56.085Z,5.30
2023-08-14T08:45:24.202Z,5.00
2023-08-14T08:47:52.891Z,5.60
2023-08-14T08:50:19.897Z,4.90
2023-08-14T08:52:46.732Z,5.10
2023-08-14T08:55:16.295Z,5.30
2023-08-14T08:57:44.115Z,4.70
2023-08-14T09:00:11.493Z,4.80
2023-08-14T09:02:38.429Z,4.60
2023-08-14T09:05:05.654Z,4.50
2023-08-14T09:07:32.498Z,4.90
2023-08-14T09:09:59.270Z,4.30
2023-08-14T09:12:26.389Z,4.50
2023-08-14T09:15:05.355Z,4.00
2023-08-14T09:17:32.620Z,4.60
2023-08-14T09:20:01.700Z,4.50
2023-08-14T09:22:30.772Z,4.30
2023-08-14T09:24:58.157Z,4.40
2023-08-14T09:27:27.721Z,4.20
2023-08-14T09:29:55.178Z,4.30
2023-08-14T09:32:25.643Z,4.80
2023-08-14T09:35:02.504Z,4.10
2023-08-14T09:37:29.221Z,4.60
2023-08-14T09:40:08.211Z,4.70
2023-08-14T09:42:35.697Z,4.50
2023-08-14T09:45:02.695Z,4.30
2023-08-14T09:47:30.102Z,4.40
2023-08-14T09:49:57.413Z,4.10
2023-08-14T09:52:27.021Z,4.20
2023-08-14T09:54:54.521Z,3.60
2023-08-14T09:57:25.206Z,3.70
2023-08-14T09:59:54.307Z,4.10
2023-08-14T10:02:24.021Z,4.50
2023-08-14T10:04:51.479Z,3.80
2023-08-14T10:07:18.796Z,3.60
2023-08-14T10:09:46.437Z,4.00
2023-08-14T10:12:15.053Z,3.70
2023-08-14T10:14:43.234Z,4.00
2023-08-14T10:17:13.775Z,4.20
2023-08-14T10:19:41.386Z,3.70
2023-08-14T10:22:08.851Z,3.80
2023-08-14T10:24:39.785Z,4.10
2023-08-14T10:27:06.373Z,3.80
2023-08-14T10:29:34.857Z,3.70
2023-08-14T10:32:02.277Z,4.20
2023-08-14T10:34:31.624Z,3.90
2023-08-14T10:36:58.512Z,4.00
2023-08-14T10:39:38.658Z,3.80
2023-08-14T10:42:06.571Z,3.90
2023-08-14T10:44:35.820Z,3.80
2023-08-14T10:47:12.266Z,4.10
2023-08-14T10:49:46.050Z,4.20
2023-08-14T10:52:16.671Z,3.80
2023-08-14T10:54:53.517Z,3.90
2023-08-14T10:57:27.759Z,4.00
2023-08-14T10:59:58.245Z,4.00
2023-08-14T11:02:28.201Z,4.80
2023-08-14T11:05:02.261Z,3.90
2023-08-14T11:07:30.366Z,3.60
2023-08-14T11:10:01.569Z,4.10
2023-08-14T11:12:30.277Z,4.00
2023-08-14T11:14:58.367Z,3.70
2023-08-14T11:17:26.304Z,3.90
2023-08-14T11:19:53.010Z,3.80
2023-08-14T11:22:23.681Z,4.10
2023-08-14T11:24:50.375Z,4.40
2023-08-14T11:27:17.273Z,4.70
2023-08-14T11:29:51.651Z,4.50
2023-08-14T11:32:19.152Z,4.50
2023-08-14T11:34:46.415Z,4.10
2023-08-14T11:37:13.956Z,4.20
2023-08-14T11:39:41.270Z,4.20
2023-08-14T11:42:08.402Z,4.10
2023-08-14T11:44:36.016Z,4.50
2023-08-14T11:47:08.413Z,4.40
2023-08-14T11:49:39.412Z,4.40
2023-08-14T11:52:06.799Z,4.40
2023-08-14T11:54:34.888Z,4.70
2023-08-14T11:57:03.346Z,4.50
2023-08-14T11:59:30.115Z,4.10
2023-08-14T12:01:58.287Z,4.30
2023-08-14T12:04:24.941Z,4.20
2023-08-14T12:06:51.740Z,4.30
2023-08-14T12:09:18.788Z,4.30
2023-08-14T12:11:46.835Z,4.40
2023-08-14T12:14:15.281Z,4.60
2023-08-14T12:16:45.794Z,4.00
2023-08-14T12:19:13.130Z,4.30
2023-08-14T12:21:40.336Z,4.60
2023-08-14T12:24:07.185Z,4.50
2023-08-14T12:26:42.263Z,4.20
2023-08-14T12:29:09.784Z,4.20
2023-08-14T12:31:36.769Z,4.40
2023-08-14T12:34:06.859Z,4.50
2023-08-14T12:36:34.581Z,4.40
2023-08-14T12:39:01.380Z,4.20
2023-08-14T12:41:28.482Z,4.30
2023-08-14T12:43:55.210Z,4.20
2023-08-14T12:46:22.166Z,3.70
2023-08-14T12:48:48.955Z,4.20
2023-08-14T12:51:15.633Z,3.80
2023-08-14T12:53:42.278Z,4.00
2023-08-14T12:56:09.073Z,3.80
2023-08-14T12:58:35.843Z,4.00
2023-08-14T13:01:05.418Z,3.70
2023-08-14T13:06:03.143Z,4.50
2023-08-14T13:08:30.049Z,4.20
2023-08-14T13:10:56.679Z,4.00
2023-08-14T13:13:25.506Z,4.10
2023-08-14T13:15:52.320Z,3.80
2023-08-14T13:18:19.059Z,3.70
2023-08-14T13:20:45.900Z,4.20
2023-08-14T13:23:12.677Z,4.60
2023-08-14T13:25:42.490Z,4.10
2023-08-14T13:28:10.760Z,3.80
2023-08-14T13:30:37.660Z,4.50
2023-08-14T13:33:05.676Z,4.20
2023-08-14T13:35:32.420Z,4.20
2023-08-14T13:38:00.001Z,3.70
2023-08-14T13:40:26.948Z,4.50
2023-08-14T13:42:53.830Z,4.60
2023-08-14T13:45:20.875Z,4.10
2023-08-14T13:47:54.980Z,4.20
2023-08-14T13:50:33.040Z,4.30
2023-08-14T13:53:01.413Z,4.10
2023-08-14T13:55:29.522Z,4.10
2023-08-14T13:57:57.501Z,4.40
2023-08-14T14:00:28.821Z,4.10
2023-08-14T14:02:56.803Z,3.60
2023-08-14T14:05:23.678Z,3.70
2023-08-14T14:07:54.589Z,4.20
2023-08-14T14:10:23.096Z,4.50
2023-08-14T14:13:01.342Z,4.50
2023-08-14T14:15:29.061Z,4.10
2023-08-14T14:17:55.828Z,4.00
2023-08-14T14:20:22.809Z,4.70
2023-08-14T14:22:49.797Z,4.60
2023-08-14T14:25:16.665Z,4.10
2023-08-14T14:27:43.356Z,4.20
2023-08-14T14:30:10.541Z,4.40
2023-08-14T14:32:37.627Z,4.30
2023-08-14T14:35:04.836Z,4.10
2023-08-14T14:37:31.614Z,4.40
2023-08-14T14:39:58.322Z,4.50
2023-08-14T14:42:25.985Z,4.20
2023-08-14T14:44:53.233Z,4.40
2023-08-14T14:47:20.688Z,4.20
2023-08-14T14:49:48.300Z,4.90
2023-08-14T14:52:15.019Z,4.30
2023-08-14T14:54:41.690Z,4.60
2023-08-14T14:57:08.474Z,4.40
2023-08-14T14:59:35.161Z,4.50
2023-08-14T15:02:06.478Z,4.40
2023-08-14T15:04:36.161Z,4.60
2023-08-14T15:07:02.922Z,4.00
2023-08-14T15:09:29.624Z,4.30
2023-08-14T15:11:56.480Z,4.60
2023-08-14T15:14:23.124Z,4.30
2023-08-14T15:16:49.961Z,4.00
2023-08-14T15:19:16.801Z,4.70
2023-08-14T15:21:43.783Z,3.80
2023-08-14T15:24:11.847Z,4.00
2023-08-14T15:26:38.969Z,3.90
2023-08-14T15:29:05.812Z,4.00
2023-08-14T15:31:32.697Z,4.40
2023-08-14T15:33:59.511Z,4.10
2023-08-14T15:36:26.760Z,4.30
2023-08-14T15:38:54.410Z,4.20
2023-08-14T15:41:22.732Z,4.10
2023-08-14T15:43:50.770Z,4.50
2023-08-14T15:46:17.601Z,4.40
2023-08-14T15:48:46.097Z,4.10
2023-08-14T15:51:12.925Z,4.40
2023-08-14T15:53:39.766Z,4.30
2023-08-14T15:56:06.622Z,4.50
2023-08-14T15:58:33.248Z,4.70
2023-08-14T16:01:00.104Z,4.20
2023-08-14T16:03:26.977Z,4.40
2023-08-14T16:05:57.201Z,4.00
2023-08-14T16:08:23.922Z,4.70
2023-08-14T16:10:50.596Z,3.90
2023-08-14T16:13:17.216Z,4.10
2023-08-14T16:15:44.147Z,4.30
2023-08-14T16:18:11.063Z,4.60
2023-08-14T16:20:37.903Z,4.70
2023-08-14T16:23:04.949Z,4.60
2023-08-14T16:25:31.794Z,4.40
2023-08-14T16:27:58.634Z,4.00
2023-08-14T16:30:25.481Z,4.60
2023-08-14T16:32:52.365Z,4.10
2023-08-14T16:35:19.404Z,4.80
2023-08-14T16:37:46.210Z,4.80
2023-08-14T16:40:13.489Z,4.10
2023-08-14T16:42:40.303Z,4.40
2023-08-14T16:45:07.924Z,4.60
2023-08-14T16:47:34.835Z,4.80
2023-08-14T16:50:01.651Z,4.90
2023-08-14T16:52:28.289Z,4.70
2023-08-14T16:54:55.131Z,4.90
2023-08-14T16:57:22.913Z,4.80
2023-08-14T16:59:50.886Z,4.60
2023-08-14T17:02:18.163Z,4.70
2023-08-14T17:04:47.457Z,4.80
2023-08-14T17:07:14.467Z,5.10
2023-08-14T17:09:41.309Z,4.70
2023-08-14T17:12:08.358Z,5.00
2023-08-14T17:14:35.475Z,5.30
2023-08-14T17:17:02.825Z,4.70
2023-08-14T17:19:30.113Z,5.00
2023-08-14T17:21:57.527Z,4.90
2023-08-14T17:24:25.438Z,4.90
2023-08-14T17:26:52.277Z,4.70
2023-08-14T17:29:19.658Z,5.20
2023-08-14T17:31:47.017Z,4.20
2023-08-14T17:34:15.420Z,4.30
2023-08-14T17:36:43.134Z,4.50
2023-08-14T17:39:11.606Z,4.50
2023-08-14T17:41:38.711Z,4.70
2023-08-14T17:44:05.497Z,4.80
2023-08-14T17:46:32.978Z,4.50
2023-08-14T17:49:02.478Z,4.80
2023-08-14T17:51:29.797Z,5.10
2023-08-14T17:53:57.589Z,4.90
2023-08-14T17:56:25.267Z,5.20
2023-08-14T17:58:52.922Z,5.90
2023-08-14T18:01:20.398Z,6.10
2023-08-14T18:03:49.194Z,6.20
2023-08-14T18:06:17.533Z,6.90
2023-08-14T18:08:45.191Z,5.60
2023-08-14T18:11:13.667Z,6.00
2023-08-14T18:13:46.133Z,5.00
2023-08-14T18:16:14.463Z,6.00
2023-08-14T18:18:42.396Z,5.60
2023-08-14T18:21:09.672Z,5.70
2023-08-14T18:23:37.315Z,6.20
2023-08-14T18:26:04.147Z,6.10
2023-08-14T18:28:31.400Z,6.50
2023-08-14T18:30:59.063Z,6.90
2023-08-14T18:33:25.696Z,6.30
2023-08-14T18:35:53.362Z,7.90
2023-08-14T18:38:20.273Z,7.80
2023-08-14T18:40:46.942Z,6.90
2023-08-14T18:43:14.509Z,7.30
2023-08-14T18:45:41.834Z,6.70
2023-08-14T18:48:09.673Z,7.20
2023-08-14T18:50:36.669Z,6.50
2023-08-14T18:53:05.150Z,6.80
2023-08-14T18:55:33.162Z,6.80
2023-08-14T18:58:00.270Z,6.60
2023-08-14T19:00:27.933Z,9.40
2023-08-14T19:02:56.719Z,9.80
2023-08-14T19:05:24.483Z,9.60
2023-08-14T19:07:52.242Z,9.00
2023-08-14T19:10:19.812Z,7.10
2023-08-14T19:12:47.409Z,6.90
2023-08-14T19:15:14.724Z,7.50
2023-08-14T19:17:42.414Z,6.70
2023-08-14T19:20:10.455Z,7.40
2023-08-14T19:22:38.129Z,7.70
2023-08-14T19:25:05.776Z,8.90
2023-08-14T19:27:33.028Z,8.90
2023-08-14T19:30:00.723Z,9.60
2023-08-14T19:32:27.941Z,8.70
2023-08-14T19:34:54.862Z,8.60
2023-08-14T19:37:23.778Z,7.80
2023-08-14T19:39:50.947Z,9.50
2023-08-14T19:42:17.776Z,8.40
2023-08-14T19:44:45.024Z,9.30
2023-08-14T19:47:11.870Z,8.90
2023-08-14T19:49:38.919Z,9.40
2023-08-14T19:52:05.966Z,8.30
2023-08-14T19:54:33.629Z,8.30
2023-08-14T19:57:02.948Z,9.20
2023-08-14T19:59:31.203Z,9.80
2023-08-14T20:02:00.108Z,9.60
2023-08-14T20:04:27.242Z,8.80
2023-08-14T20:06:54.598Z,9.00
2023-08-14T20:09:22.669Z,9.90
2023-08-14T20:11:49.511Z,9.50
2023-08-14T20:14:16.968Z,9.20
2023-08-14T20:16:45.237Z,8.60
2023-08-14T20:19:12.747Z,9.60
2023-08-14T20:21:40.975Z,9.80
2023-08-14T20:24:09.669Z,9.70
2023-08-14T20:26:37.325Z,9.00
2023-08-14T20:29:04.986Z,8.90
2023-08-14T20:31:34.012Z,9.40
2023-08-14T20:34:01.100Z,9.10
2023-08-14T20:36:29.227Z,9.20
2023-08-14T20:38:57.037Z,9.20
2023-08-14T20:41:23.911Z,9.80
2023-08-14T20:43:50.955Z,9.70
2023-08-14T20:46:17.901Z,10.10
2023-08-14T20:48:44.857Z,10.90
2023-08-14T20:51:13.136Z,10.00
2023-08-14T20:53:41.219Z,9.50
2023-08-14T20:56:08.252Z,9.30
2023-08-14T20:58:35.096Z,10.00
2023-08-14T21:01:02.556Z,10.40
2023-08-14T21:03:29.525Z,10.60
2023-08-14T21:05:57.573Z,9.90
2023-08-14T21:08:24.473Z,10.00
2023-08-14T21:10:51.355Z,9.70
2023-08-14T21:13:18.197Z,9.30
2023-08-14T21:15:44.975Z,9.40
2023-08-14T21:18:11.944Z,9.30
2023-08-14T21:20:41.799Z,9.50
2023-08-14T21:23:08.641Z,9.70
2023-08-14T21:25:46.379Z,9.40
2023-08-14T21:28:13.787Z,9.60
2023-08-14T21:30:40.648Z,9.40
2023-08-14T21:33:07.545Z,9.20
2023-08-14T21:35:34.739Z,10.10
2023-08-14T21:38:01.582Z,9.50
2023-08-14T21:40:28.638Z,9.50
2023-08-14T21:42:57.516Z,10.00
2023-08-14T21:45:24.362Z,9.30
2023-08-14T21:47:51.275Z,9.50
2023-08-14T21:50:18.251Z,9.20
2023-08-14T21:52:45.043Z,9.90
2023-08-14T21:55:11.728Z,10.10
2023-08-14T21:57:38.573Z,10.10
2023-08-14T22:00:05.821Z,10.20
2023-08-14T22:02:35.531Z,10.50
2023-08-14T22:05:02.577Z,10.20
2023-08-14T22:07:29.410Z,9.90
2023-08-14T22:09:56.007Z,11.20
2023-08-14T22:12:22.622Z,10.90
2023-08-14T22:14:49.526Z,11.50
2023-08-14T22:17:16.368Z,12.00
2023-08-14T22:19:43.143Z,11.20
2023-08-14T22:22:10.262Z,11.70
2023-08-14T22:24:41.384Z,11.50
2023-08-14T22:27:09.276Z,11.90
2023-08-14T22:29:36.318Z,11.60
2023-08-14T22:32:03.364Z,11.40
2023-08-14T22:34:30.229Z,11.20
2023-08-14T22:36:56.971Z,11.70
2023-08-14T22:39:23.889Z,11.00
2023-08-14T22:41:50.732Z,11.30
2023-08-14T22:44:17.499Z,11.20
2023-08-14T22:46:44.388Z,11.90
2023-08-14T22:49:12.334Z,11.20
2023-08-14T22:51:39.333Z,12.40
2023-08-14T22:54:06.181Z,11.20
2023-08-14T22:56:32.967Z,10.90
2023-08-14T22:58:59.654Z,10.50
2023-08-14T23:01:26.565Z,12.00
2023-08-14T23:03:53.626Z,11.10
2023-08-14T23:06:20.596Z,11.50
2023-08-14T23:08:47.441Z,11.60
2023-08-14T23:11:14.279Z,11.20
2023-08-14T23:13:41.052Z,11.60
2023-08-14T23:16:07.829Z,10.70
2023-08-14T23:18:34.607Z,10.80
2023-08-14T23:21:01.444Z,11.60
2023-08-14T23:23:28.291Z,11.20
2023-08-14T23:25:54.943Z,10.50
2023-08-14T23:28:21.766Z,10.30
2023-08-14T23:30:50.470Z,10.40
2023-08-14T23:33:17.509Z,10.40
2023-08-14T23:35:44.554Z,10.00
2023-08-14T23:38:11.389Z,10.70
2023-08-14T23:40:38.238Z,10.00
2023-08-14T23:43:05.077Z,10.10
2023-08-14T23:45:32.330Z,10.70
2023-08-14T23:47:59.212Z,10.80
2023-08-14T23:50:26.219Z,11.20
2023-08-14T23:52:53.063Z,10.20
2023-08-14T23:55:19.907Z,11.60
2023-08-14T23:57:46.754Z,10.60
